• Join FlightAware (Why Join?)
  • Login
  • US Flag 
07:31AM EDT


 

Airport Tracker/Info


-or-


 

Live Flight TrackerFlight Track Log ✈ UAL5822 ✈ 20-Apr-2013 ✈ KORD - KTYS

Flight Track Log - Related Links

Times and Time Zones

All times are in EDT time to prevent confusion due to time zone crossing. See the UAL5822 flight status page for this flight to view local times or setup timezone preferences in your user account.

Time Position Orientation Groundspeed Altitude Reporting Facility
EDT Latitude Longitude Course Direction KTS MPH feet Rate Location/Type
12:12PM 41.9000 -87.9000 156° South 223 257 4,300  Level Chicago TRACON
12:13PM 41.8167 -87.8667 163° South 277 319 6,900 2,520 Climbing Chicago TRACON
12:15PM 41.6456 -87.7347 150° Southeast 317 365 13,200 1,980 Climbing Chicago Center
12:17PM 41.5147 -87.5822 156° South  Level Estimated
12:17PM 41.5572 -87.6700 151° Southeast 360 414 14,000  Level Chicago Center
12:18PM 41.4606 -87.5989 151° Southeast 387 445 15,700 1,560 Climbing Chicago Center
12:19PM 41.3533 -87.5611 165° South 401 461 17,200 1,380 Climbing Chicago Center
12:20PM 41.2433 -87.5419 173° South 397 457 18,600 1,380 Climbing Chicago Center
12:21PM 41.1308 -87.5147 170° South 407 468 20,100 1,440 Climbing Chicago Center
12:22PM 41.0164 -87.4836 168° South 416 479 21,600 1,500 Climbing Chicago Center
12:23PM 40.9011 -87.4542 169° South 421 484 23,300 1,860 Climbing Chicago Center
12:24PM 40.7647 -87.4183 169° South 419 482 25,500 1,920 Climbing Chicago Center
12:25PM 40.6544 -87.3889 169° South 409 471 27,300 1,620 Climbing Chicago Center
12:26PM 40.5456 -87.3597 168° South 403 464 28,900 1,260 Climbing Chicago Center
12:27PM 40.4375 -87.3236 166° South 401 461 30,000 1,020 Climbing Chicago Center
12:28PM 40.3386 -87.2292 144° Southeast 435 501 31,000 960 Climbing Chicago Center
12:29PM 40.2378 -87.1358 145° Southeast 445 512 32,000 900 Climbing Chicago Center
12:30PM 40.1350 -87.0406 145° Southeast 452 520 32,900 720 Climbing Chicago Center
12:30PM 40.0822 -86.9908 144° Southeast 456 525 33,000 60 Climbing Indianapolis Center
12:31PM 39.9731 -86.8914 145° Southeast 470 541 33,000  Level Indianapolis Center
12:32PM 39.8575 -86.7961 148° Southeast 483 556 33,000  Level Indianapolis Center
12:33PM 39.7453 -86.7044 148° Southeast 478 550 33,000  Level Indianapolis Center
12:34PM 39.6603 -86.5600 127° Southeast 498 573 33,000  Level Indianapolis Center
12:35PM 39.5542 -86.4536 142° Southeast 481 554 33,000  Level Indianapolis Center
12:36PM 39.4381 -86.3681 150° Southeast 475 547 33,000  Level Indianapolis Center
12:37PM 39.3231 -86.2831 150° Southeast 473 544 33,000  Level Indianapolis Center
12:38PM 39.2075 -86.1978 150° Southeast 475 547 33,000  Level Indianapolis Center
12:39PM 39.0917 -86.1133 150° Southeast 473 544 33,000  Level Indianapolis Center
12:40PM 38.9756 -86.0278 150° Southeast 476 548 33,000  Level Indianapolis Center
12:41PM 38.8592 -85.9439 151° Southeast 475 547 33,000  Level Indianapolis Center
12:42PM 38.7447 -85.8600 150° Southeast 472 543 33,000  Level Indianapolis Center
12:43PM 38.6292 -85.7758 150° Southeast 473 544 33,000  Level Indianapolis Center
12:45PM 38.4897 -85.6758 151° Southeast 475 547 33,000  Level Indianapolis Center
12:46PM 38.3731 -85.5925 151° Southeast 475 547 33,000  Level Indianapolis Center
12:47PM 38.2553 -85.5092 151° Southeast 479 551 33,000  Level Indianapolis Center
12:48PM 38.1397 -85.4272 151° Southeast 475 547 33,000  Level Indianapolis Center
12:49PM 38.0242 -85.3456 151° Southeast 472 543 33,000 -300 Level Indianapolis Center
12:50PM 37.9092 -85.2644 151° Southeast 472 543 32,400 -840 Descending Indianapolis Center
12:51PM 37.7944 -85.1811 150° Southeast 462 532 31,300 -720 Descending Indianapolis Center
12:52PM 37.6783 -85.1011 151° Southeast 474 545 31,000 -300 Descending Indianapolis Center
12:53PM 37.5611 -85.0211 152° Southeast 477 549 30,700 -900 Descending Indianapolis Center
12:54PM 37.4461 -84.9397 151° Southeast 476 548 29,200 -1,500 Descending Indianapolis Center
12:55PM 37.3325 -84.8625 152° Southeast 467 537 27,700 -1,620 Descending Indianapolis Center
12:56PM 37.2008 -84.7708 151° Southeast 464 534 26,000 -1,620 Descending Indianapolis Center
12:57PM 37.0872 -84.6922 151° Southeast 467 537 24,500 -1,320 Descending Indianapolis Center
12:58PM 36.9922 -84.6275 151° Southeast 455 524 23,300 -1,500 Descending Indianapolis Center
12:59PM 36.8636 -84.5394 151° Southeast 442 509 21,500 -1,620 Descending Indianapolis Center
01:00PM 36.7658 -84.4736 152° Southeast 430 495 20,100 -1,740 Descending Indianapolis Center
01:01PM 36.6625 -84.4028 151° Southeast 427 491 18,000 -2,280 Descending Indianapolis Center
01:02PM 36.5617 -84.3347 152° Southeast 415 478 15,500 -2,400 Descending Indianapolis Center
01:03PM 36.4619 -84.2675 152° Southeast 384 442 13,200 -2,100 Descending Indianapolis Center
01:04PM 36.3742 -84.2083 152° Southeast 364 419 11,200 -1,680 Descending Indianapolis Center
01:04PM 36.3564 -84.1986 156° South 367 422 11,100 -180 Descending Atlanta Center
01:05PM 36.2836 -84.1392 147° Southeast 336 387 11,000 -480 Descending Atlanta Center
01:06PM 36.2189 -84.0669 138° Southeast 318 366 10,200 -1,200 Descending Atlanta Center
01:07PM 36.1542 -83.9950 138° Southeast 311 358 8,700 -1,500 Descending Atlanta Center
01:08PM 36.0958 -83.9333 139° Southeast 297 342 7,300 -900 Descending Atlanta Center
01:09PM 36.0603 -83.8667 123° Southeast 264 304 7,000 -900 Descending Atlanta Center
01:10PM 36.0122 -83.8181 141° Southeast 243 280 5,600 -1,380 Descending Atlanta Center
01:11PM 35.9539 -83.8361 194° South 196 226 4,300 -960 Descending Atlanta Center
01:12PM 35.9100 -83.8694 212° Southwest 189 217 3,700 -600 Descending Atlanta Center
01:14PM 35.8000 -83.9833 219° Southwest  Level FlightAware Approximate
01:21PM 35.8110 -83.9940 219° Southwest  Level Estimated
01:22PM 35.8110 -83.9940 219° Southwest  Level Estimated